sensor_id;sensor_type;location;lat;lon;timestamp;pressure;altitude;pressure_sealevel;temperature;humidity
16451;BME280;12243;42.708;23.310;2023-05-25T00:00:12;94977.09;;;16.29;95.35
16451;BME280;12243;42.708;23.310;2023-05-25T00:02:40;94980.19;;;16.16;96.37
16451;BME280;12243;42.708;23.310;2023-05-25T00:05:08;94986.94;;;16.18;96.67
16451;BME280;12243;42.708;23.310;2023-05-25T00:07:35;94987.75;;;16.11;96.74
16451;BME280;12243;42.708;23.310;2023-05-25T00:10:05;94988.56;;;16.11;96.52
16451;BME280;12243;42.708;23.310;2023-05-25T00:12:32;94990.84;;;16.06;97.34
16451;BME280;12243;42.708;23.310;2023-05-25T00:14:59;94989.53;;;16.10;97.32
16451;BME280;12243;42.708;23.310;2023-05-25T00:17:26;94986.91;;;16.10;96.86
16451;BME280;12243;42.708;23.310;2023-05-25T00:19:57;94987.22;;;15.99;97.02
16451;BME280;12243;42.708;23.310;2023-05-25T00:22:34;94985.09;;;15.94;97.37
16451;BME280;12243;42.708;23.310;2023-05-25T00:25:01;94982.63;;;15.93;97.44
16451;BME280;12243;42.708;23.310;2023-05-25T00:27:29;94982.31;;;15.96;97.68
16451;BME280;12243;42.708;23.310;2023-05-25T00:29:56;94979.34;;;15.91;98.21
16451;BME280;12243;42.708;23.310;2023-05-25T00:32:23;94979.66;;;15.88;98.06
16451;BME280;12243;42.708;23.310;2023-05-25T00:34:52;94980.31;;;15.82;98.86
16451;BME280;12243;42.708;23.310;2023-05-25T00:37:19;94982.28;;;15.80;98.70
16451;BME280;12243;42.708;23.310;2023-05-25T00:39:46;94995.38;;;15.71;99.83
16451;BME280;12243;42.708;23.310;2023-05-25T00:42:14;94988.31;;;15.72;99.65
16451;BME280;12243;42.708;23.310;2023-05-25T00:44:42;94988.50;;;15.70;99.76
16451;BME280;12243;42.708;23.310;2023-05-25T00:47:10;94992.44;;;15.75;99.75
16451;BME280;12243;42.708;23.310;2023-05-25T00:49:37;94986.84;;;15.69;99.96
16451;BME280;12243;42.708;23.310;2023-05-25T00:52:04;94995.47;;;15.62;100.00
16451;BME280;12243;42.708;23.310;2023-05-25T00:54:31;94992.25;;;15.68;100.00
16451;BME280;12243;42.708;23.310;2023-05-25T00:57:01;94996.63;;;15.59;100.00
16451;BME280;12243;42.708;23.310;2023-05-25T00:59:32;95002.53;;;15.53;100.00
16451;BME280;12243;42.708;23.310;2023-05-25T01:02:07;95006.63;;;15.56;99.40
16451;BME280;12243;42.708;23.310;2023-05-25T01:04:36;95005.13;;;15.45;99.28
16451;BME280;12243;42.708;23.310;2023-05-25T01:07:07;95004.75;;;15.40;99.06
16451;BME280;12243;42.708;23.310;2023-05-25T01:09:37;95007.19;;;15.33;99.25
16451;BME280;12243;42.708;23.310;2023-05-25T01:12:06;95012.44;;;15.33;99.51
16451;BME280;12243;42.708;23.310;2023-05-25T01:14:36;95002.91;;;15.24;100.00
16451;BME280;12243;42.708;23.310;2023-05-25T01:17:05;95012.03;;;15.20;100.00
16451;BME280;12243;42.708;23.310;2023-05-25T01:19:32;95002.41;;;15.20;100.00
16451;BME280;12243;42.708;23.310;2023-05-25T01:22:04;95005.97;;;15.19;100.00
16451;BME280;12243;42.708;23.310;2023-05-25T01:24:37;95004.34;;;15.18;100.00
16451;BME280;12243;42.708;23.310;2023-05-25T01:27:11;94996.47;;;15.18;100.00
16451;BME280;12243;42.708;23.310;2023-05-25T01:29:42;94997.50;;;15.25;100.00
16451;BME280;12243;42.708;23.310;2023-05-25T01:32:11;94996.31;;;15.20;100.00
16451;BME280;12243;42.708;23.310;2023-05-25T01:34:40;94989.09;;;15.22;100.00
16451;BME280;12243;42.708;23.310;2023-05-25T01:37:10;94993.50;;;15.13;100.00
16451;BME280;12243;42.708;23.310;2023-05-25T01:39:38;94991.25;;;15.27;100.00
16451;BME280;12243;42.708;23.310;2023-05-25T01:42:07;94985.19;;;15.26;100.00
16451;BME280;12243;42.708;23.310;2023-05-25T01:44:34;94976.16;;;15.20;100.00
16451;BME280;12243;42.708;23.310;2023-05-25T01:47:03;94979.75;;;15.19;100.00
16451;BME280;12243;42.708;23.310;2023-05-25T01:49:44;94972.16;;;15.08;100.00
16451;BME280;12243;42.708;23.310;2023-05-25T01:52:18;94982.94;;;15.05;100.00
16451;BME280;12243;42.708;23.310;2023-05-25T01:54:52;94981.31;;;15.04;100.00
16451;BME280;12243;42.708;23.310;2023-05-25T01:57:23;94977.41;;;15.08;100.00
16451;BME280;12243;42.708;23.310;2023-05-25T01:59:54;94982.84;;;15.15;100.00
16451;BME280;12243;42.708;23.310;2023-05-25T02:02:25;94983.00;;;15.13;100.00
16451;BME280;12243;42.708;23.310;2023-05-25T02:04:53;94990.47;;;15.00;100.00
16451;BME280;12243;42.708;23.310;2023-05-25T02:07:23;94995.72;;;15.00;100.00
16451;BME280;12243;42.708;23.310;2023-05-25T02:09:50;94992.44;;;14.98;100.00
16451;BME280;12243;42.708;23.310;2023-05-25T02:12:17;94997.88;;;15.05;100.00
16451;BME280;12243;42.708;23.310;2023-05-25T02:14:44;94993.44;;;15.05;100.00
16451;BME280;12243;42.708;23.310;2023-05-25T02:17:13;94995.94;;;15.07;100.00
16451;BME280;12243;42.708;23.310;2023-05-25T02:19:42;95006.84;;;14.94;100.00
16451;BME280;12243;42.708;23.310;2023-05-25T02:22:09;95002.31;;;15.04;100.00
16451;BME280;12243;42.708;23.310;2023-05-25T02:24:38;95006.75;;;15.12;100.00
16451;BME280;12243;42.708;23.310;2023-05-25T02:27:05;95008.47;;;14.95;100.00
16451;BME280;12243;42.708;23.310;2023-05-25T02:29:32;95009.72;;;14.83;100.00
16451;BME280;12243;42.708;23.310;2023-05-25T02:32:00;95008.00;;;14.73;100.00
16451;BME280;12243;42.708;23.310;2023-05-25T02:34:27;95009.00;;;14.72;100.00
16451;BME280;12243;42.708;23.310;2023-05-25T02:36:57;95012.59;;;14.71;100.00
16451;BME280;12243;42.708;23.310;2023-05-25T02:39:25;95020.03;;;14.58;100.00
16451;BME280;12243;42.708;23.310;2023-05-25T02:41:55;95020.22;;;14.47;100.00
16451;BME280;12243;42.708;23.310;2023-05-25T02:44:22;95027.13;;;14.48;100.00
16451;BME280;12243;42.708;23.310;2023-05-25T02:46:48;95019.66;;;14.53;100.00
16451;BME280;12243;42.708;23.310;2023-05-25T02:49:15;95029.59;;;14.49;100.00
16451;BME280;12243;42.708;23.310;2023-05-25T02:51:42;95029.88;;;14.46;100.00
16451;BME280;12243;42.708;23.310;2023-05-25T02:54:09;95026.31;;;14.47;100.00
16451;BME280;12243;42.708;23.310;2023-05-25T02:56:36;95037.34;;;14.51;100.00
16451;BME280;12243;42.708;23.310;2023-05-25T02:59:05;95038.97;;;14.52;100.00
16451;BME280;12243;42.708;23.310;2023-05-25T03:01:32;95037.25;;;14.61;100.00
16451;BME280;12243;42.708;23.310;2023-05-25T03:03:59;95040.06;;;14.67;100.00
16451;BME280;12243;42.708;23.310;2023-05-25T03:06:30;95043.28;;;14.79;100.00
16451;BME280;12243;42.708;23.310;2023-05-25T03:09:04;95045.91;;;14.79;100.00
16451;BME280;12243;42.708;23.310;2023-05-25T03:11:31;95036.84;;;14.73;100.00
16451;BME280;12243;42.708;23.310;2023-05-25T03:13:59;95049.97;;;14.73;100.00
16451;BME280;12243;42.708;23.310;2023-05-25T03:16:29;95040.16;;;14.75;100.00
16451;BME280;12243;42.708;23.310;2023-05-25T03:19:01;95037.06;;;14.80;100.00
16451;BME280;12243;42.708;23.310;2023-05-25T03:21:30;95042.66;;;14.85;100.00
16451;BME280;12243;42.708;23.310;2023-05-25T03:23:57;95055.31;;;14.90;100.00
16451;BME280;12243;42.708;23.310;2023-05-25T03:26:25;95048.19;;;15.00;100.00
16451;BME280;12243;42.708;23.310;2023-05-25T03:28:52;95050.50;;;15.03;100.00
16451;BME280;12243;42.708;23.310;2023-05-25T03:31:20;95046.59;;;15.07;100.00
16451;BME280;12243;42.708;23.310;2023-05-25T03:33:49;95056.13;;;15.16;100.00
16451;BME280;12243;42.708;23.310;2023-05-25T03:36:17;95046.72;;;15.32;100.00
16451;BME280;12243;42.708;23.310;2023-05-25T03:38:44;95051.34;;;15.38;100.00
16451;BME280;12243;42.708;23.310;2023-05-25T03:41:11;95051.06;;;15.49;100.00
16451;BME280;12243;42.708;23.310;2023-05-25T03:43:38;95051.81;;;15.67;100.00
16451;BME280;12243;42.708;23.310;2023-05-25T03:46:07;95050.81;;;16.19;100.00
16451;BME280;12243;42.708;23.310;2023-05-25T03:48:34;95059.91;;;16.74;98.77
16451;BME280;12243;42.708;23.310;2023-05-25T03:51:04;95054.00;;;16.96;94.48
16451;BME280;12243;42.708;23.310;2023-05-25T03:53:31;95059.25;;;17.04;92.55
16451;BME280;12243;42.708;23.310;2023-05-25T03:55:58;95062.16;;;17.26;90.44
16451;BME280;12243;42.708;23.310;2023-05-25T03:58:25;95072.13;;;17.47;89.76
16451;BME280;12243;42.708;23.310;2023-05-25T04:00:52;95070.91;;;17.82;88.32
16451;BME280;12243;42.708;23.310;2023-05-25T04:03:20;95066.25;;;18.23;85.76
16451;BME280;12243;42.708;23.310;2023-05-25T04:05:47;95069.06;;;18.68;83.27
16451;BME280;12243;42.708;23.310;2023-05-25T04:08:16;95074.28;;;19.22;81.56
16451;BME280;12243;42.708;23.310;2023-05-25T04:10:43;95081.41;;;19.66;79.13
16451;BME280;12243;42.708;23.310;2023-05-25T04:13:11;95081.94;;;20.06;76.87
16451;BME280;12243;42.708;23.310;2023-05-25T04:15:38;95087.44;;;20.40;74.28
16451;BME280;12243;42.708;23.310;2023-05-25T04:18:13;95083.06;;;20.69;72.56
16451;BME280;12243;42.708;23.310;2023-05-25T04:20:40;95084.47;;;20.86;70.97
16451;BME280;12243;42.708;23.310;2023-05-25T04:23:10;95081.78;;;21.08;70.55
16451;BME280;12243;42.708;23.310;2023-05-25T04:25:39;95088.03;;;21.50;69.16
16451;BME280;12243;42.708;23.310;2023-05-25T04:28:07;95085.22;;;21.93;67.55
16451;BME280;12243;42.708;23.310;2023-05-25T04:30:45;95090.97;;;22.03;63.86
16451;BME280;12243;42.708;23.310;2023-05-25T04:33:39;95100.66;;;21.76;64.93
16451;BME280;12243;42.708;23.310;2023-05-25T04:36:28;95095.59;;;21.53;65.83
16451;BME280;12243;42.708;23.310;2023-05-25T04:38:59;95097.84;;;21.28;67.09
16451;BME280;12243;42.708;23.310;2023-05-25T04:41:30;95102.97;;;21.08;67.84
16451;BME280;12243;42.708;23.310;2023-05-25T04:44:02;95101.38;;;20.85;68.69
16451;BME280;12243;42.708;23.310;2023-05-25T04:46:29;95106.81;;;20.84;69.17
16451;BME280;12243;42.708;23.310;2023-05-25T04:48:58;95099.19;;;20.74;68.53
16451;BME280;12243;42.708;23.310;2023-05-25T04:51:25;95099.63;;;20.56;69.58
16451;BME280;12243;42.708;23.310;2023-05-25T04:53:52;95101.28;;;20.57;69.62
16451;BME280;12243;42.708;23.310;2023-05-25T04:56:19;95085.06;;;20.67;69.59
16451;BME280;12243;42.708;23.310;2023-05-25T04:58:51;95088.72;;;20.87;68.29
16451;BME280;12243;42.708;23.310;2023-05-25T05:01:19;95081.13;;;21.27;67.87
16451;BME280;12243;42.708;23.310;2023-05-25T05:03:47;95086.41;;;21.83;65.19
16451;BME280;12243;42.708;23.310;2023-05-25T05:06:14;95083.38;;;22.34;62.65
16451;BME280;12243;42.708;23.310;2023-05-25T05:08:41;95087.53;;;22.57;60.84
16451;BME280;12243;42.708;23.310;2023-05-25T05:11:08;95082.28;;;22.70;60.17
16451;BME280;12243;42.708;23.310;2023-05-25T05:13:35;95088.19;;;22.79;59.94
16451;BME280;12243;42.708;23.310;2023-05-25T05:16:05;95086.00;;;23.16;59.21
16451;BME280;12243;42.708;23.310;2023-05-25T05:18:32;95081.09;;;23.39;58.21
16451;BME280;12243;42.708;23.310;2023-05-25T05:20:59;95088.22;;;23.65;57.54
16451;BME280;12243;42.708;23.310;2023-05-25T05:23:26;95093.25;;;24.07;57.02
16451;BME280;12243;42.708;23.310;2023-05-25T05:25:53;95091.03;;;24.55;55.64
16451;BME280;12243;42.708;23.310;2023-05-25T05:28:21;95095.06;;;24.96;53.90
16451;BME280;12243;42.708;23.310;2023-05-25T05:30:51;95098.72;;;25.33;52.42
16451;BME280;12243;42.708;23.310;2023-05-25T05:33:20;95110.97;;;24.78;53.10
16451;BME280;12243;42.708;23.310;2023-05-25T05:35:48;95105.97;;;24.56;54.29
16451;BME280;12243;42.708;23.310;2023-05-25T05:38:20;95112.75;;;24.59;54.28
16451;BME280;12243;42.708;23.310;2023-05-25T05:40:47;95099.97;;;24.67;54.01
16451;BME280;12243;42.708;23.310;2023-05-25T05:43:19;95106.16;;;24.61;54.02
16451;BME280;12243;42.708;23.310;2023-05-25T05:45:46;95113.84;;;24.83;54.01
16451;BME280;12243;42.708;23.310;2023-05-25T05:48:13;95115.09;;;24.74;54.28
16451;BME280;12243;42.708;23.310;2023-05-25T05:50:42;95112.44;;;24.74;54.17
16451;BME280;12243;42.708;23.310;2023-05-25T05:53:11;95114.69;;;24.77;54.69
16451;BME280;12243;42.708;23.310;2023-05-25T05:55:38;95105.22;;;24.81;55.10
16451;BME280;12243;42.708;23.310;2023-05-25T05:58:06;95117.34;;;25.08;54.14
16451;BME280;12243;42.708;23.310;2023-05-25T06:00:33;95112.97;;;24.89;54.04
16451;BME280;12243;42.708;23.310;2023-05-25T06:03:00;95110.88;;;24.59;55.25
16451;BME280;12243;42.708;23.310;2023-05-25T06:05:28;95109.41;;;24.70;55.12
16451;BME280;12243;42.708;23.310;2023-05-25T06:07:58;95113.38;;;24.86;53.75
16451;BME280;12243;42.708;23.310;2023-05-25T06:10:25;95112.22;;;25.13;53.63
16451;BME280;12243;42.708;23.310;2023-05-25T06:12:52;95104.53;;;25.24;53.15
16451;BME280;12243;42.708;23.310;2023-05-25T06:15:20;95103.47;;;25.56;52.81
16451;BME280;12243;42.708;23.310;2023-05-25T06:17:48;95108.50;;;25.89;51.80
16451;BME280;12243;42.708;23.310;2023-05-25T06:20:16;95112.16;;;25.95;50.98
16451;BME280;12243;42.708;23.310;2023-05-25T06:22:44;95114.69;;;26.08;51.41
16451;BME280;12243;42.708;23.310;2023-05-25T06:25:12;95109.03;;;26.35;50.60
16451;BME280;12243;42.708;23.310;2023-05-25T06:27:40;95108.41;;;26.70;49.64
16451;BME280;12243;42.708;23.310;2023-05-25T06:30:07;95110.81;;;26.90;48.96
16451;BME280;12243;42.708;23.310;2023-05-25T06:32:35;95116.28;;;26.95;48.21
16451;BME280;12243;42.708;23.310;2023-05-25T06:35:03;95115.78;;;26.86;48.69
16451;BME280;12243;42.708;23.310;2023-05-25T06:37:30;95117.31;;;26.82;48.35
16451;BME280;12243;42.708;23.310;2023-05-25T06:40:02;95118.91;;;26.83;48.19
16451;BME280;12243;42.708;23.310;2023-05-25T06:42:31;95119.91;;;27.00;47.13
16451;BME280;12243;42.708;23.310;2023-05-25T06:45:01;95123.47;;;26.94;47.53
16451;BME280;12243;42.708;23.310;2023-05-25T06:47:27;95121.72;;;26.88;48.04
16451;BME280;12243;42.708;23.310;2023-05-25T06:49:55;95116.25;;;26.83;48.35
16451;BME280;12243;42.708;23.310;2023-05-25T06:52:22;95120.97;;;26.69;49.17
16451;BME280;12243;42.708;23.310;2023-05-25T06:54:52;95123.56;;;26.39;50.26
16451;BME280;12243;42.708;23.310;2023-05-25T06:57:19;95121.47;;;26.04;51.16
16451;BME280;12243;42.708;23.310;2023-05-25T06:59:47;95119.84;;;25.85;52.06
16451;BME280;12243;42.708;23.310;2023-05-25T07:02:14;95116.44;;;25.96;52.38
16451;BME280;12243;42.708;23.310;2023-05-25T07:04:43;95111.84;;;25.85;52.85
16451;BME280;12243;42.708;23.310;2023-05-25T07:07:10;95123.03;;;25.69;53.43
16451;BME280;12243;42.708;23.310;2023-05-25T07:09:38;95111.44;;;25.31;54.49
16451;BME280;12243;42.708;23.310;2023-05-25T07:12:06;95114.69;;;25.40;54.75
16451;BME280;12243;42.708;23.310;2023-05-25T07:14:34;95111.53;;;25.25;55.48
16451;BME280;12243;42.708;23.310;2023-05-25T07:17:02;95110.09;;;25.47;55.73
16451;BME280;12243;42.708;23.310;2023-05-25T07:19:29;95107.13;;;26.05;54.26
16451;BME280;12243;42.708;23.310;2023-05-25T07:21:56;95107.25;;;26.10;53.84
16451;BME280;12243;42.708;23.310;2023-05-25T07:24:23;95100.91;;;26.60;52.92
16451;BME280;12243;42.708;23.310;2023-05-25T07:26:50;95106.34;;;26.35;53.15
16451;BME280;12243;42.708;23.310;2023-05-25T07:29:17;95109.88;;;25.74;54.54
16451;BME280;12243;42.708;23.310;2023-05-25T07:31:44;95107.22;;;25.49;55.54
16451;BME280;12243;42.708;23.310;2023-05-25T07:34:13;95109.84;;;25.30;55.94
16451;BME280;12243;42.708;23.310;2023-05-25T07:36:40;95111.44;;;25.31;56.27
16451;BME280;12243;42.708;23.310;2023-05-25T07:39:09;95119.34;;;25.19;55.88
16451;BME280;12243;42.708;23.310;2023-05-25T07:41:36;95119.16;;;24.83;56.96
16451;BME280;12243;42.708;23.310;2023-05-25T07:44:03;95129.94;;;24.56;54.41
16451;BME280;12243;42.708;23.310;2023-05-25T07:46:30;95126.34;;;24.31;57.09
16451;BME280;12243;42.708;23.310;2023-05-25T07:48:57;95121.88;;;24.18;57.92
16451;BME280;12243;42.708;23.310;2023-05-25T07:51:27;95112.94;;;23.99;57.52
16451;BME280;12243;42.708;23.310;2023-05-25T07:53:55;95116.66;;;23.58;58.69
16451;BME280;12243;42.708;23.310;2023-05-25T07:56:23;95120.34;;;23.17;59.76
16451;BME280;12243;42.708;23.310;2023-05-25T07:58:51;95120.75;;;22.94;61.61
16451;BME280;12243;42.708;23.310;2023-05-25T08:01:17;95126.28;;;23.06;61.14
16451;BME280;12243;42.708;23.310;2023-05-25T08:03:44;95132.19;;;23.01;61.22
16451;BME280;12243;42.708;23.310;2023-05-25T08:06:11;95141.38;;;22.92;60.95
16451;BME280;12243;42.708;23.310;2023-05-25T08:08:39;95156.41;;;22.78;60.43
16451;BME280;12243;42.708;23.310;2023-05-25T08:11:09;95155.63;;;22.30;60.05
16451;BME280;12243;42.708;23.310;2023-05-25T08:13:36;95164.47;;;21.74;61.22
16451;BME280;12243;42.708;23.310;2023-05-25T08:16:03;95174.19;;;20.81;65.16
16451;BME280;12243;42.708;23.310;2023-05-25T08:18:30;95183.75;;;20.46;67.07
16451;BME280;12243;42.708;23.310;2023-05-25T08:20:57;95175.66;;;20.33;69.28
16451;BME280;12243;42.708;23.310;2023-05-25T08:23:24;95181.84;;;20.25;71.58
16451;BME280;12243;42.708;23.310;2023-05-25T08:25:52;95185.31;;;20.11;73.58
16451;BME280;12243;42.708;23.310;2023-05-25T08:28:20;95177.03;;;19.84;78.50
16451;BME280;12243;42.708;23.310;2023-05-25T08:30:51;95186.03;;;19.37;84.99
16451;BME280;12243;42.708;23.310;2023-05-25T08:33:18;95183.53;;;18.98;89.02
16451;BME280;12243;42.708;23.310;2023-05-25T08:35:45;95183.31;;;18.45;91.17
16451;BME280;12243;42.708;23.310;2023-05-25T08:38:14;95176.88;;;18.08;94.93
16451;BME280;12243;42.708;23.310;2023-05-25T08:40:41;95185.81;;;17.99;98.16
16451;BME280;12243;42.708;23.310;2023-05-25T08:43:10;95189.63;;;17.80;98.67
16451;BME280;12243;42.708;23.310;2023-05-25T08:45:37;95195.41;;;17.59;99.33
16451;BME280;12243;42.708;23.310;2023-05-25T08:48:09;95195.78;;;17.40;100.00
16451;BME280;12243;42.708;23.310;2023-05-25T08:50:37;95180.28;;;17.21;100.00
16451;BME280;12243;42.708;23.310;2023-05-25T08:53:07;95178.00;;;17.09;100.00
16451;BME280;12243;42.708;23.310;2023-05-25T08:55:38;95179.31;;;17.05;100.00
16451;BME280;12243;42.708;23.310;2023-05-25T08:58:12;95186.53;;;17.03;100.00
16451;BME280;12243;42.708;23.310;2023-05-25T09:00:43;95185.88;;;17.01;100.00
16451;BME280;12243;42.708;23.310;2023-05-25T09:03:15;95202.34;;;16.95;100.00
16451;BME280;12243;42.708;23.310;2023-05-25T09:05:43;95204.97;;;16.95;100.00
16451;BME280;12243;42.708;23.310;2023-05-25T09:08:10;95212.19;;;16.93;100.00
16451;BME280;12243;42.708;23.310;2023-05-25T09:10:38;95219.75;;;17.04;100.00
16451;BME280;12243;42.708;23.310;2023-05-25T09:13:05;95226.34;;;17.08;100.00
16451;BME280;12243;42.708;23.310;2023-05-25T09:15:34;95223.72;;;17.17;100.00
16451;BME280;12243;42.708;23.310;2023-05-25T09:18:01;95227.03;;;17.35;100.00
16451;BME280;12243;42.708;23.310;2023-05-25T09:20:28;95219.13;;;17.51;100.00
16451;BME280;12243;42.708;23.310;2023-05-25T09:22:57;95219.94;;;17.76;100.00
16451;BME280;12243;42.708;23.310;2023-05-25T09:25:25;95219.44;;;17.81;100.00
16451;BME280;12243;42.708;23.310;2023-05-25T09:27:53;95214.59;;;18.09;100.00
16451;BME280;12243;42.708;23.310;2023-05-25T09:30:20;95217.59;;;18.45;100.00
16451;BME280;12243;42.708;23.310;2023-05-25T09:32:49;95216.19;;;18.66;100.00
16451;BME280;12243;42.708;23.310;2023-05-25T09:35:16;95216.16;;;18.74;100.00
16451;BME280;12243;42.708;23.310;2023-05-25T09:37:43;95206.50;;;18.89;100.00
16451;BME280;12243;42.708;23.310;2023-05-25T09:40:10;95204.31;;;19.01;100.00
16451;BME280;12243;42.708;23.310;2023-05-25T09:42:37;95206.19;;;19.15;100.00
16451;BME280;12243;42.708;23.310;2023-05-25T09:45:05;95199.47;;;19.27;99.04
16451;BME280;12243;42.708;23.310;2023-05-25T09:47:32;95195.31;;;19.33;96.94
16451;BME280;12243;42.708;23.310;2023-05-25T09:50:03;95204.03;;;19.57;98.68
16451;BME280;12243;42.708;23.310;2023-05-25T09:52:30;95205.91;;;19.71;96.71
16451;BME280;12243;42.708;23.310;2023-05-25T09:54:58;95210.41;;;20.00;96.68
16451;BME280;12243;42.708;23.310;2023-05-25T09:57:26;95204.69;;;20.26;90.03
16451;BME280;12243;42.708;23.310;2023-05-25T09:59:53;95201.91;;;20.05;90.04
16451;BME280;12243;42.708;23.310;2023-05-25T10:02:20;95204.75;;;20.03;92.93
16451;BME280;12243;42.708;23.310;2023-05-25T10:04:47;95202.91;;;20.18;91.30
16451;BME280;12243;42.708;23.310;2023-05-25T10:07:16;95195.34;;;20.45;90.19
16451;BME280;12243;42.708;23.310;2023-05-25T10:09:45;95194.25;;;20.69;90.20
16451;BME280;12243;42.708;23.310;2023-05-25T10:12:16;95195.16;;;21.19;92.75
16451;BME280;12243;42.708;23.310;2023-05-25T10:14:45;95192.59;;;21.75;84.58
16451;BME280;12243;42.708;23.310;2023-05-25T10:17:17;95185.44;;;21.69;80.31
16451;BME280;12243;42.708;23.310;2023-05-25T10:19:52;95176.94;;;21.52;80.40
16451;BME280;12243;42.708;23.310;2023-05-25T10:22:24;95175.28;;;21.30;80.65
16451;BME280;12243;42.708;23.310;2023-05-25T10:24:53;95171.84;;;21.08;82.42
16451;BME280;12243;42.708;23.310;2023-05-25T10:27:23;95172.47;;;21.53;86.52
16451;BME280;12243;42.708;23.310;2023-05-25T10:29:51;95170.03;;;21.79;86.00
16451;BME280;12243;42.708;23.310;2023-05-25T10:32:18;95156.28;;;22.04;77.37
16451;BME280;12243;42.708;23.310;2023-05-25T10:34:45;95147.88;;;21.94;76.81
16451;BME280;12243;42.708;23.310;2023-05-25T10:37:13;95143.72;;;21.84;79.65
16451;BME280;12243;42.708;23.310;2023-05-25T10:39:42;95147.31;;;22.05;80.33
16451;BME280;12243;42.708;23.310;2023-05-25T10:42:10;95142.88;;;22.12;76.67
16451;BME280;12243;42.708;23.310;2023-05-25T10:44:37;95143.34;;;22.22;75.96
16451;BME280;12243;42.708;23.310;2023-05-25T10:47:05;95138.13;;;22.42;75.72
16451;BME280;12243;42.708;23.310;2023-05-25T10:49:34;95128.09;;;22.38;77.76
16451;BME280;12243;42.708;23.310;2023-05-25T10:52:17;95123.03;;;22.43;75.24
16451;BME280;12243;42.708;23.310;2023-05-25T10:54:46;95116.50;;;22.39;72.95
16451;BME280;12243;42.708;23.310;2023-05-25T10:57:17;95111.97;;;22.32;76.80
16451;BME280;12243;42.708;23.310;2023-05-25T10:59:48;95113.19;;;22.37;73.59
16451;BME280;12243;42.708;23.310;2023-05-25T11:02:16;95111.59;;;22.49;74.69
16451;BME280;12243;42.708;23.310;2023-05-25T11:04:46;95109.38;;;22.59;70.08
16451;BME280;12243;42.708;23.310;2023-05-25T11:07:14;95107.91;;;22.37;70.83
16451;BME280;12243;42.708;23.310;2023-05-25T11:09:57;95115.78;;;22.23;71.38
16451;BME280;12243;42.708;23.310;2023-05-25T11:12:25;95117.59;;;22.16;71.40
16451;BME280;12243;42.708;23.310;2023-05-25T11:15:10;95108.66;;;22.24;73.19
16451;BME280;12243;42.708;23.310;2023-05-25T11:17:57;95117.78;;;22.56;72.56
16451;BME280;12243;42.708;23.310;2023-05-25T11:20:27;95114.47;;;22.54;68.74
16451;BME280;12243;42.708;23.310;2023-05-25T11:22:56;95117.78;;;22.56;69.36
16451;BME280;12243;42.708;23.310;2023-05-25T11:25:38;95117.38;;;22.72;68.73
16451;BME280;12243;42.708;23.310;2023-05-25T11:28:06;95116.75;;;22.57;69.89
16451;BME280;12243;42.708;23.310;2023-05-25T11:30:35;95119.72;;;22.34;71.22
16451;BME280;12243;42.708;23.310;2023-05-25T11:33:02;95110.31;;;22.31;72.13
16451;BME280;12243;42.708;23.310;2023-05-25T11:35:32;95116.47;;;22.32;72.77
16451;BME280;12243;42.708;23.310;2023-05-25T11:38:04;95114.38;;;22.27;74.34
16451;BME280;12243;42.708;23.310;2023-05-25T11:40:32;95116.13;;;22.13;75.24
16451;BME280;12243;42.708;23.310;2023-05-25T11:43:01;95115.81;;;21.88;75.78
16451;BME280;12243;42.708;23.310;2023-05-25T11:45:29;95108.69;;;21.96;76.15
16451;BME280;12243;42.708;23.310;2023-05-25T11:47:58;95110.19;;;22.05;73.07
16451;BME280;12243;42.708;23.310;2023-05-25T11:50:25;95114.44;;;21.99;72.30
16451;BME280;12243;42.708;23.310;2023-05-25T11:52:52;95114.66;;;22.04;72.52
16451;BME280;12243;42.708;23.310;2023-05-25T11:55:22;95115.16;;;22.15;73.47
16451;BME280;12243;42.708;23.310;2023-05-25T11:57:55;95110.09;;;22.26;72.81
16451;BME280;12243;42.708;23.310;2023-05-25T12:00:27;95110.84;;;22.68;68.76
16451;BME280;12243;42.708;23.310;2023-05-25T12:02:54;95100.25;;;22.81;68.00
16451;BME280;12243;42.708;23.310;2023-05-25T12:05:21;95101.06;;;22.75;69.00
16451;BME280;12243;42.708;23.310;2023-05-25T12:07:49;95108.81;;;22.70;69.88
16451;BME280;12243;42.708;23.310;2023-05-25T12:10:16;95093.72;;;22.91;69.85
16451;BME280;12243;42.708;23.310;2023-05-25T12:12:44;95095.41;;;23.32;67.95
16451;BME280;12243;42.708;23.310;2023-05-25T12:15:13;95094.97;;;23.61;66.37
16451;BME280;12243;42.708;23.310;2023-05-25T12:17:43;95087.16;;;23.99;65.07
16451;BME280;12243;42.708;23.310;2023-05-25T12:20:12;95090.22;;;24.55;61.25
16451;BME280;12243;42.708;23.310;2023-05-25T12:22:40;95084.84;;;24.61;58.86
16451;BME280;12243;42.708;23.310;2023-05-25T12:25:09;95067.94;;;24.81;52.53
16451;BME280;12243;42.708;23.310;2023-05-25T12:27:37;95070.72;;;25.49;51.55
16451;BME280;12243;42.708;23.310;2023-05-25T12:30:06;95058.91;;;25.82;49.69
16451;BME280;12243;42.708;23.310;2023-05-25T12:32:33;95069.66;;;26.12;50.86
16451;BME280;12243;42.708;23.310;2023-05-25T12:35:06;95074.16;;;26.11;50.57
16451;BME280;12243;42.708;23.310;2023-05-25T12:37:33;95057.69;;;26.51;50.62
16451;BME280;12243;42.708;23.310;2023-05-25T12:40:00;95053.53;;;27.09;49.32
16451;BME280;12243;42.708;23.310;2023-05-25T12:42:28;95051.28;;;27.36;46.93
16451;BME280;12243;42.708;23.310;2023-05-25T12:44:56;95050.94;;;27.68;47.56
16451;BME280;12243;42.708;23.310;2023-05-25T12:47:25;95049.16;;;28.09;44.61
16451;BME280;12243;42.708;23.310;2023-05-25T12:50:11;95047.38;;;28.26;41.96
16451;BME280;12243;42.708;23.310;2023-05-25T12:52:41;95027.47;;;28.10;41.93
16451;BME280;12243;42.708;23.310;2023-05-25T12:55:22;95040.91;;;27.75;41.72